createdAt,value
2018-04-15T00:00:15.906Z,100439.67
2018-04-15T00:02:42.250Z,100440.52
2018-04-15T00:05:08.592Z,100439.41
2018-04-15T00:07:35.021Z,100437.77
2018-04-15T00:10:01.387Z,100437.67
2018-04-15T00:12:27.888Z,100440.68
2018-04-15T00:14:54.218Z,100437.71
2018-04-15T00:17:20.590Z,100430.75
2018-04-15T00:19:46.938Z,100421.95
2018-04-15T00:22:13.277Z,100417.88
2018-04-15T00:24:39.605Z,100428.83
2018-04-15T00:27:05.938Z,100421.83
2018-04-15T00:29:32.282Z,100419.16
2018-04-15T00:31:58.638Z,100416.73
2018-04-15T00:34:25.006Z,100412.70
2018-04-15T00:36:51.339Z,100419.87
2018-04-15T00:39:17.685Z,100424.15
2018-04-15T00:41:44.024Z,100421.08
2018-04-15T00:44:10.365Z,100416.16
2018-04-15T00:46:36.697Z,100419.80
2018-04-15T00:49:03.065Z,100425.17
2018-04-15T00:51:29.372Z,100419.33
2018-04-15T00:54:07.878Z,100417.70
2018-04-15T00:56:34.197Z,100410.64
2018-04-15T00:59:00.541Z,100415.45
2018-04-15T01:01:26.885Z,100419.27
2018-04-15T01:03:53.229Z,100428.25
2018-04-15T01:06:19.581Z,100427.28
2018-04-15T01:08:45.946Z,100423.72
2018-04-15T01:11:12.309Z,100419.45
2018-04-15T01:13:38.694Z,100412.16
2018-04-15T01:16:05.091Z,100396.86
2018-04-15T01:18:31.524Z,100401.51
2018-04-15T01:20:57.958Z,100402.17
2018-04-15T01:23:24.317Z,100401.91
2018-04-15T01:25:50.681Z,100400.87
2018-04-15T01:28:17.025Z,100410.52
2018-04-15T01:30:43.386Z,100412.98
2018-04-15T01:33:09.817Z,100412.45
2018-04-15T01:35:36.170Z,100411.14
2018-04-15T01:38:02.518Z,100410.17
2018-04-15T01:40:28.861Z,100412.41
2018-04-15T01:42:55.206Z,100401.95
2018-04-15T01:45:21.558Z,100400.17
2018-04-15T01:47:47.982Z,100393.36
2018-04-15T01:50:14.350Z,100393.40
2018-04-15T01:52:40.696Z,100397.16
2018-04-15T01:55:07.038Z,100397.61
2018-04-15T01:57:33.418Z,100393.94
2018-04-15T01:59:59.764Z,100394.59
2018-04-15T02:02:26.198Z,100397.95
2018-04-15T02:04:52.568Z,100397.06
2018-04-15T02:07:18.889Z,100391.97
2018-04-15T02:09:45.278Z,100394.94
2018-04-15T02:12:11.613Z,100395.20
2018-04-15T02:14:37.955Z,100393.47
2018-04-15T02:17:04.288Z,100394.69
2018-04-15T02:19:30.622Z,100396.78
2018-04-15T02:21:56.949Z,100402.72
2018-04-15T02:24:23.281Z,100400.21
2018-04-15T02:26:49.617Z,100402.30
2018-04-15T02:29:15.946Z,100399.00
2018-04-15T02:31:42.377Z,100399.34
2018-04-15T02:34:08.722Z,100394.14
2018-04-15T02:36:35.102Z,100407.30
2018-04-15T02:39:01.523Z,100407.89
2018-04-15T02:41:27.930Z,100410.01
2018-04-15T02:43:54.311Z,100409.09
2018-04-15T02:46:20.654Z,100405.46
2018-04-15T02:48:47.001Z,100396.70
2018-04-15T02:51:13.354Z,100396.72
2018-04-15T02:53:39.718Z,100395.86
2018-04-15T02:56:06.091Z,100397.45
2018-04-15T02:58:32.428Z,100397.88
2018-04-15T03:00:58.767Z,100400.10
2018-04-15T03:03:25.108Z,100396.98
2018-04-15T03:05:51.450Z,100397.92
2018-04-15T03:08:17.786Z,100404.23
2018-04-15T03:10:44.287Z,100405.24
2018-04-15T03:13:10.617Z,100409.65
2018-04-15T03:15:36.950Z,100405.22
2018-04-15T03:18:03.297Z,100408.95
2018-04-15T03:20:29.689Z,100409.73
2018-04-15T03:22:56.099Z,100418.55
2018-04-15T03:25:22.477Z,100418.33
2018-04-15T03:27:48.840Z,100419.70
2018-04-15T03:30:15.187Z,100428.06
2018-04-15T03:32:41.541Z,100429.30
2018-04-15T03:35:08.007Z,100432.63
2018-04-15T03:37:34.367Z,100428.03
2018-04-15T03:40:00.706Z,100429.52
2018-04-15T03:42:27.057Z,100429.67
2018-04-15T03:44:53.410Z,100428.69
2018-04-15T03:47:19.766Z,100429.12
2018-04-15T03:49:46.114Z,100433.44
2018-04-15T03:52:12.458Z,100439.77
2018-04-15T03:54:38.797Z,100441.78
2018-04-15T03:57:05.130Z,100441.19
2018-04-15T03:59:31.510Z,100446.00
2018-04-15T04:01:57.869Z,100445.75
2018-04-15T04:04:24.246Z,100450.30
2018-04-15T04:06:50.603Z,100456.63
2018-04-15T04:09:16.952Z,100452.44
2018-04-15T04:11:43.279Z,100452.11
2018-04-15T04:14:09.625Z,100452.94
2018-04-15T04:16:35.966Z,100452.23
2018-04-15T04:19:14.433Z,100465.09
2018-04-15T04:21:52.873Z,100466.58
2018-04-15T04:24:31.315Z,100465.17
2018-04-15T04:27:00.154Z,100473.53
2018-04-15T04:29:26.485Z,100473.81
2018-04-15T04:31:52.845Z,100468.36
2018-04-15T04:34:19.210Z,100468.44
2018-04-15T04:36:45.557Z,100463.77
2018-04-15T04:39:11.915Z,100465.28
2018-04-15T04:41:38.273Z,100462.83
2018-04-15T04:44:04.597Z,100466.55
2018-04-15T04:46:30.955Z,100468.36
2018-04-15T04:48:57.311Z,100468.86
2018-04-15T04:51:23.665Z,100472.73
2018-04-15T04:53:50.002Z,100471.72
2018-04-15T04:56:16.354Z,100480.40
2018-04-15T04:58:42.689Z,100487.00
2018-04-15T05:01:09.035Z,100503.61
2018-04-15T05:03:35.374Z,100502.44
2018-04-15T05:06:01.694Z,100511.61
2018-04-15T05:08:28.047Z,100520.14
2018-04-15T05:10:54.395Z,100510.48
2018-04-15T05:13:20.880Z,100503.46
2018-04-15T05:15:47.225Z,100502.84
2018-04-15T05:18:13.610Z,100506.98
2018-04-15T05:20:39.945Z,100521.05
2018-04-15T05:23:06.265Z,100523.47
2018-04-15T05:25:32.622Z,100522.58
2018-04-15T05:27:58.991Z,100535.81
2018-04-15T05:30:25.653Z,100532.69
2018-04-15T05:32:51.967Z,100536.33
2018-04-15T05:35:18.313Z,100534.55
2018-04-15T05:37:44.629Z,100538.31
2018-04-15T05:40:10.998Z,100537.67
2018-04-15T05:42:37.318Z,100535.80
2018-04-15T05:45:03.687Z,100529.98
2018-04-15T05:47:29.990Z,100536.91
2018-04-15T05:49:56.322Z,100538.35
2018-04-15T05:52:22.653Z,100547.09
2018-04-15T05:54:48.969Z,100554.77
2018-04-15T05:57:15.296Z,100552.03
2018-04-15T05:59:41.798Z,100561.58
2018-04-15T06:02:08.138Z,100558.30
2018-04-15T06:04:34.471Z,100560.75
2018-04-15T06:07:00.835Z,100564.49
2018-04-15T06:09:27.186Z,100562.43
2018-04-15T06:11:53.489Z,100571.88
2018-04-15T06:14:19.800Z,100576.32
2018-04-15T06:16:46.121Z,100581.34
2018-04-15T06:19:12.454Z,100566.17
2018-04-15T06:21:39.349Z,100563.50
2018-04-15T06:24:05.809Z,100558.22
2018-04-15T06:26:32.165Z,100562.77
2018-04-15T06:28:58.486Z,100566.13
2018-04-15T06:31:24.818Z,100560.83
2018-04-15T06:33:51.171Z,100561.59
2018-04-15T06:36:17.494Z,100559.77
2018-04-15T06:38:43.829Z,100560.14
2018-04-15T06:41:10.145Z,100560.72
2018-04-15T06:43:36.468Z,100566.41
2018-04-15T06:46:02.892Z,100565.58
2018-04-15T06:48:29.216Z,100578.32
2018-04-15T06:50:55.551Z,100589.38
2018-04-15T06:53:21.853Z,100586.63
2018-04-15T06:55:48.232Z,100587.17
2018-04-15T06:58:14.544Z,100595.12
2018-04-15T07:00:40.910Z,100602.48
2018-04-15T07:03:07.366Z,100597.30
2018-04-15T07:05:33.709Z,100608.69
2018-04-15T07:08:00.038Z,100604.52
2018-04-15T07:10:26.366Z,100609.59
2018-04-15T07:12:53.002Z,100614.62
2018-04-15T07:15:19.395Z,100612.72
2018-04-15T07:17:45.726Z,100612.67
2018-04-15T07:20:12.049Z,100614.05
2018-04-15T07:22:38.369Z,100606.95
2018-04-15T07:25:04.734Z,100613.94
2018-04-15T07:27:31.198Z,100611.48
2018-04-15T07:29:57.582Z,100623.87
2018-04-15T07:32:23.914Z,100625.94
2018-04-15T07:34:50.238Z,100617.32
2018-04-15T07:37:16.562Z,100627.22
2018-04-15T07:39:43.471Z,100631.96
2018-04-15T07:42:09.867Z,100625.64
2018-04-15T07:44:36.191Z,100624.16
2018-04-15T07:47:02.592Z,100628.67
2018-04-15T07:49:28.902Z,100633.03
2018-04-15T07:51:55.236Z,100634.57
2018-04-15T07:54:21.594Z,100634.84
2018-04-15T07:56:47.931Z,100633.58
2018-04-15T07:59:19.092Z,100638.55
2018-04-15T08:01:47.036Z,100632.87
2018-04-15T08:04:13.514Z,100636.11
2018-04-15T08:06:39.853Z,100637.51
2018-04-15T08:09:06.294Z,100633.56
2018-04-15T08:11:32.699Z,100631.25
2018-04-15T08:13:59.078Z,100641.06
2018-04-15T08:16:25.690Z,100637.86
2018-04-15T08:18:52.034Z,100632.22
2018-04-15T08:21:18.386Z,100636.95
2018-04-15T08:23:44.754Z,100628.77
2018-04-15T08:26:11.086Z,100624.23
2018-04-15T08:28:37.626Z,100624.77
2018-04-15T08:31:04.007Z,100625.48
2018-04-15T08:33:30.322Z,100620.48
2018-04-15T08:35:56.669Z,100623.02
2018-04-15T08:38:22.998Z,100626.56
2018-04-15T08:40:49.317Z,100619.84
2018-04-15T08:43:15.727Z,100624.94
2018-04-15T08:45:42.044Z,100623.77
2018-04-15T08:48:08.374Z,100624.50
2018-04-15T08:50:34.715Z,100614.77
2018-04-15T08:53:01.050Z,100608.89
2018-04-15T08:55:27.382Z,100607.88
2018-04-15T08:57:53.709Z,100597.75
2018-04-15T09:00:20.106Z,100600.23
2018-04-15T09:02:46.421Z,100595.05
2018-04-15T09:05:12.763Z,100590.34
2018-04-15T09:07:39.073Z,100583.70
2018-04-15T09:10:05.390Z,100575.59
2018-04-15T09:12:31.733Z,100573.27
2018-04-15T09:14:58.045Z,100569.70
2018-04-15T09:17:24.350Z,100576.06
2018-04-15T09:19:50.689Z,100583.03
2018-04-15T09:22:17.251Z,100588.11
2018-04-15T09:24:43.762Z,100573.77
2018-04-15T09:27:10.136Z,100567.53
2018-04-15T09:29:36.539Z,100561.66
2018-04-15T09:32:02.870Z,100559.69
2018-04-15T09:34:29.187Z,100558.70
2018-04-15T09:36:55.506Z,100555.79
2018-04-15T09:39:21.841Z,100548.98
2018-04-15T09:41:48.162Z,100549.14
2018-04-15T09:44:14.681Z,100533.41
2018-04-15T09:46:40.994Z,100531.53
2018-04-15T09:49:07.317Z,100527.00
2018-04-15T09:51:33.625Z,100527.39
2018-04-15T09:53:59.936Z,100531.58
2018-04-15T09:56:26.261Z,100524.05
2018-04-15T09:58:52.573Z,100520.03
2018-04-15T10:01:18.926Z,100522.37
2018-04-15T10:03:45.246Z,100516.30
2018-04-15T10:06:11.667Z,100504.31
2018-04-15T10:08:38.061Z,100500.47
2018-04-15T10:11:04.385Z,100503.05
2018-04-15T10:13:30.730Z,100499.45
2018-04-15T10:15:57.050Z,100494.58
2018-04-15T10:18:23.413Z,100496.57
2018-04-15T10:20:49.769Z,100494.00
2018-04-15T10:23:16.095Z,100488.75
2018-04-15T10:25:42.514Z,100492.31
2018-04-15T10:28:08.840Z,100491.72
2018-04-15T10:30:35.251Z,100494.59
2018-04-15T10:33:01.801Z,100486.94
2018-04-15T10:35:28.103Z,100489.99
2018-04-15T10:37:54.430Z,100479.41
2018-04-15T10:40:20.753Z,100473.00
2018-04-15T10:42:47.082Z,100477.08
2018-04-15T10:45:13.402Z,100476.86
2018-04-15T10:47:39.741Z,100478.94
2018-04-15T10:50:06.074Z,100480.45
2018-04-15T10:52:32.398Z,100470.24
2018-04-15T10:54:58.714Z,100467.36
2018-04-15T10:57:25.039Z,100471.75
2018-04-15T10:59:51.469Z,100468.67
2018-04-15T11:02:17.760Z,100456.67
2018-04-15T11:04:44.097Z,100464.09
2018-04-15T11:07:10.420Z,100453.62
2018-04-15T11:09:36.750Z,100455.48
2018-04-15T11:12:03.103Z,100449.16
2018-04-15T11:14:29.644Z,100456.47
2018-04-15T11:16:55.994Z,100450.23
2018-04-15T11:19:22.511Z,100450.41
2018-04-15T11:21:48.870Z,100449.59
2018-04-15T11:24:15.214Z,100453.78
2018-04-15T11:26:41.529Z,100445.20
2018-04-15T11:29:07.859Z,100443.03
2018-04-15T11:31:34.202Z,100437.80
2018-04-15T11:34:00.600Z,100438.11
2018-04-15T11:36:26.930Z,100437.70
2018-04-15T11:38:53.289Z,100437.04
2018-04-15T11:41:19.638Z,100433.41
2018-04-15T11:43:45.957Z,100431.17
2018-04-15T11:46:12.282Z,100424.77
2018-04-15T11:48:38.601Z,100431.41
2018-04-15T11:51:04.942Z,100431.28
2018-04-15T11:53:31.266Z,100423.83
2018-04-15T11:55:57.681Z,100421.83
2018-04-15T11:58:24.011Z,100428.09
2018-04-15T12:00:50.348Z,100424.08
2018-04-15T12:03:16.693Z,100410.94
2018-04-15T12:05:43.033Z,100403.01
2018-04-15T12:08:09.441Z,100405.73
2018-04-15T12:10:35.764Z,100395.16
2018-04-15T12:13:02.130Z,100396.06
2018-04-15T12:15:28.533Z,100392.11
2018-04-15T12:17:54.973Z,100387.48
2018-04-15T12:20:21.310Z,100378.08
2018-04-15T12:22:47.660Z,100374.16
2018-04-15T12:25:14.018Z,100372.20
2018-04-15T12:27:40.377Z,100362.94
2018-04-15T12:30:06.766Z,100353.05
2018-04-15T12:32:33.210Z,100352.50
2018-04-15T12:34:59.696Z,100353.95
2018-04-15T12:37:26.006Z,100344.98
2018-04-15T12:39:52.333Z,100339.80
2018-04-15T12:42:18.834Z,100345.16
2018-04-15T12:44:45.156Z,100346.36
2018-04-15T12:47:11.482Z,100344.81
2018-04-15T12:49:37.805Z,100351.07
2018-04-15T12:52:04.216Z,100338.11
2018-04-15T12:54:30.525Z,100330.70
2018-04-15T12:56:56.846Z,100336.27
2018-04-15T12:59:23.173Z,100332.00
2018-04-15T13:01:49.519Z,100325.26
2018-04-15T13:04:15.875Z,100324.90
2018-04-15T13:06:42.199Z,100320.67
2018-04-15T13:09:08.567Z,100308.44
2018-04-15T13:11:34.889Z,100311.13
2018-04-15T13:14:01.221Z,100309.52
2018-04-15T13:16:27.542Z,100304.94
2018-04-15T13:18:53.881Z,100302.22
2018-04-15T13:21:20.258Z,100305.94
2018-04-15T13:23:46.828Z,100306.91
2018-04-15T13:26:13.176Z,100296.36
2018-04-15T13:28:39.544Z,100305.08
2018-04-15T13:31:05.875Z,100300.09
2018-04-15T13:33:32.229Z,100294.89
2018-04-15T13:35:58.570Z,100287.98
2018-04-15T13:38:24.919Z,100285.43
2018-04-15T13:40:51.247Z,100292.08
2018-04-15T13:43:17.513Z,100282.58
2018-04-15T13:45:43.869Z,100284.13
2018-04-15T13:48:10.257Z,100286.47
2018-04-15T13:50:36.594Z,100284.57
2018-04-15T13:53:02.926Z,100285.25
2018-04-15T13:55:29.201Z,100280.91
2018-04-15T13:57:55.540Z,100272.16
2018-04-15T14:00:22.378Z,100268.78
2018-04-15T14:02:49.531Z,100264.15
2018-04-15T14:05:15.986Z,100257.89
2018-04-15T14:07:42.329Z,100261.05
2018-04-15T14:10:08.653Z,100264.30
2018-04-15T14:12:34.990Z,100263.22
2018-04-15T14:15:01.486Z,100264.78
2018-04-15T14:17:27.755Z,100259.14
2018-04-15T14:19:54.302Z,100256.12
2018-04-15T14:22:20.681Z,100254.91
2018-04-15T14:24:47.241Z,100249.87
2018-04-15T14:27:13.623Z,100249.08
2018-04-15T14:29:40.082Z,100246.35
2018-04-15T14:32:06.409Z,100248.05
2018-04-15T14:34:32.741Z,100257.20
2018-04-15T14:36:59.078Z,100259.36
2018-04-15T14:39:25.418Z,100259.30
2018-04-15T14:41:51.758Z,100256.64
2018-04-15T14:44:18.106Z,100255.34
2018-04-15T14:46:44.422Z,100251.08
2018-04-15T14:49:10.759Z,100247.96
2018-04-15T14:51:37.099Z,100245.77
2018-04-15T14:54:03.370Z,100249.50
2018-04-15T14:56:30.176Z,100251.38
2018-04-15T14:58:56.479Z,100250.48
2018-04-15T15:01:22.802Z,100243.55
2018-04-15T15:03:49.057Z,100238.78
2018-04-15T15:06:15.389Z,100240.61
2018-04-15T15:08:41.737Z,100244.00
2018-04-15T15:11:08.089Z,100242.66
2018-04-15T15:13:34.555Z,100237.52
2018-04-15T15:16:00.851Z,100236.11
2018-04-15T15:18:27.134Z,100229.19
2018-04-15T15:20:53.410Z,100223.27
2018-04-15T15:23:19.690Z,100235.37
2018-04-15T15:25:45.990Z,100231.57
2018-04-15T15:28:12.331Z,100236.00
2018-04-15T15:30:38.600Z,100232.39
2018-04-15T15:33:04.890Z,100244.49
2018-04-15T15:35:31.178Z,100245.03
2018-04-15T15:37:57.653Z,100243.41
2018-04-15T15:40:23.984Z,100246.08
2018-04-15T15:42:50.359Z,100247.19
2018-04-15T15:45:17.505Z,100240.58
2018-04-15T15:47:44.740Z,100245.44
2018-04-15T15:50:11.058Z,100245.92
2018-04-15T15:52:37.368Z,100249.48
2018-04-15T15:55:03.641Z,100247.92
2018-04-15T15:57:29.925Z,100244.90
2018-04-15T15:59:56.373Z,100252.67
2018-04-15T16:02:22.634Z,100249.06
2018-04-15T16:04:48.899Z,100244.98
2018-04-15T16:07:15.186Z,100246.89
2018-04-15T16:09:41.450Z,100246.09
2018-04-15T16:12:07.739Z,100246.73
2018-04-15T16:14:34.021Z,100252.56
2018-04-15T16:17:00.292Z,100249.31
2018-04-15T16:19:26.542Z,100251.53
2018-04-15T16:21:52.802Z,100249.69
2018-04-15T16:24:19.105Z,100246.78
2018-04-15T16:26:45.388Z,100249.42
2018-04-15T16:29:11.679Z,100248.46
2018-04-15T16:31:37.952Z,100251.67
2018-04-15T16:34:04.282Z,100255.59
2018-04-15T16:36:30.732Z,100255.56
2018-04-15T16:38:57.105Z,100254.48
2018-04-15T16:41:23.455Z,100264.66
2018-04-15T16:43:49.742Z,100265.97
2018-04-15T16:46:16.055Z,100263.87
2018-04-15T16:48:42.334Z,100264.69
2018-04-15T16:51:08.651Z,100270.86
2018-04-15T16:53:34.941Z,100270.81
2018-04-15T16:56:01.226Z,100270.83
2018-04-15T16:58:27.760Z,100274.31
2018-04-15T17:00:54.046Z,100271.95
2018-04-15T17:03:20.330Z,100274.11
2018-04-15T17:05:46.617Z,100270.91
2018-04-15T17:08:13.019Z,100270.73
2018-04-15T17:10:39.301Z,100267.66
2018-04-15T17:13:05.732Z,100269.05
2018-04-15T17:15:32.141Z,100269.09
2018-04-15T17:17:58.429Z,100263.95
2018-04-15T17:20:24.871Z,100266.13
2018-04-15T17:22:51.178Z,100269.42
2018-04-15T17:25:17.985Z,100273.97
2018-04-15T17:27:44.320Z,100276.92
2018-04-15T17:30:11.013Z,100277.93
2018-04-15T17:32:37.369Z,100271.87
2018-04-15T17:35:03.910Z,100276.20
2018-04-15T17:37:30.185Z,100279.55
2018-04-15T17:39:56.705Z,100284.59
2018-04-15T17:42:23.001Z,100283.98
2018-04-15T17:44:49.285Z,100282.43
2018-04-15T17:47:15.578Z,100291.27
2018-04-15T17:49:41.891Z,100291.06
2018-04-15T17:52:08.210Z,100300.16
2018-04-15T17:54:34.485Z,100310.66
2018-04-15T17:57:00.770Z,100308.66
2018-04-15T17:59:27.121Z,100323.58
2018-04-15T18:01:53.480Z,100325.58
2018-04-15T18:04:19.770Z,100326.63
2018-04-15T18:06:46.254Z,100327.70
2018-04-15T18:09:12.613Z,100323.16
2018-04-15T18:11:39.010Z,100324.69
2018-04-15T18:14:05.378Z,100325.65
2018-04-15T18:16:32.490Z,100322.27
2018-04-15T18:18:58.927Z,100327.83
2018-04-15T18:21:25.226Z,100336.20
2018-04-15T18:23:51.510Z,100335.37
2018-04-15T18:26:17.800Z,100338.87
2018-04-15T18:28:44.149Z,100333.02
2018-04-15T18:31:10.476Z,100332.09
2018-04-15T18:33:36.749Z,100341.75
2018-04-15T18:36:03.345Z,100336.44
2018-04-15T18:38:29.650Z,100341.69
2018-04-15T18:40:56.006Z,100342.58
2018-04-15T18:43:22.343Z,100346.08
2018-04-15T18:45:48.637Z,100338.72
2018-04-15T18:48:14.930Z,100340.45
2018-04-15T18:50:41.300Z,100328.94
2018-04-15T18:53:07.574Z,100315.40
2018-04-15T18:55:33.939Z,100314.18
2018-04-15T18:58:00.386Z,100311.46
2018-04-15T19:00:26.681Z,100311.14
2018-04-15T19:02:53.138Z,100319.94
2018-04-15T19:05:19.449Z,100312.12
2018-04-15T19:07:45.753Z,100308.22
2018-04-15T19:10:12.057Z,100306.38
2018-04-15T19:12:38.874Z,100307.70
2018-04-15T19:15:05.170Z,100307.67
2018-04-15T19:17:31.454Z,100306.82
2018-04-15T19:19:57.761Z,100309.06
2018-04-15T19:22:24.148Z,100307.84
2018-04-15T19:24:50.432Z,100309.89
2018-04-15T19:27:16.723Z,100308.30
2018-04-15T19:29:43.158Z,100315.45
2018-04-15T19:32:09.498Z,100319.48
2018-04-15T19:34:35.853Z,100319.61
2018-04-15T19:37:02.133Z,100317.07
2018-04-15T19:39:28.417Z,100328.17
2018-04-15T19:41:54.845Z,100331.19
2018-04-15T19:44:21.174Z,100322.06
2018-04-15T19:46:47.522Z,100309.16
2018-04-15T19:49:13.806Z,100303.53
2018-04-15T19:51:40.149Z,100306.06
2018-04-15T19:54:06.531Z,100313.70
2018-04-15T19:56:32.884Z,100305.91
2018-04-15T19:58:59.149Z,100302.98
2018-04-15T20:01:25.434Z,100306.88
2018-04-15T20:03:51.710Z,100301.33
2018-04-15T20:06:18.002Z,100303.48
2018-04-15T20:08:44.279Z,100295.25
2018-04-15T20:11:10.638Z,100292.38
2018-04-15T20:13:36.875Z,100293.54
2018-04-15T20:16:03.255Z,100291.25
2018-04-15T20:18:29.596Z,100291.89
2018-04-15T20:20:55.933Z,100289.19
2018-04-15T20:23:22.246Z,100294.09
2018-04-15T20:25:48.549Z,100295.30
2018-04-15T20:28:14.847Z,100296.38
2018-04-15T20:30:41.134Z,100290.19
2018-04-15T20:33:07.407Z,100292.27
2018-04-15T20:35:33.693Z,100297.77
2018-04-15T20:37:59.972Z,100286.72
2018-04-15T20:40:26.266Z,100287.27
2018-04-15T20:42:52.535Z,100277.63
2018-04-15T20:45:18.906Z,100283.23
2018-04-15T20:47:45.194Z,100279.98
2018-04-15T20:50:11.486Z,100283.47
2018-04-15T20:52:37.766Z,100282.44
2018-04-15T20:55:04.060Z,100287.17
2018-04-15T20:57:30.339Z,100280.55
2018-04-15T20:59:56.666Z,100282.48
2018-04-15T21:02:22.952Z,100285.01
2018-04-15T21:04:49.261Z,100288.36
2018-04-15T21:07:15.597Z,100303.27
2018-04-15T21:09:41.999Z,100300.57
2018-04-15T21:12:08.481Z,100304.03
2018-04-15T21:14:34.791Z,100304.34
2018-04-15T21:17:01.074Z,100298.77
2018-04-15T21:19:27.369Z,100301.95
2018-04-15T21:21:53.675Z,100304.73
2018-04-15T21:24:19.954Z,100303.95
2018-04-15T21:26:46.266Z,100303.66
2018-04-15T21:29:12.600Z,100313.09
2018-04-15T21:31:38.914Z,100317.30
2018-04-15T21:34:05.207Z,100317.53
2018-04-15T21:36:31.539Z,100314.45
2018-04-15T21:38:57.882Z,100317.24
2018-04-15T21:41:24.198Z,100328.91
2018-04-15T21:43:50.482Z,100320.78
2018-04-15T21:46:16.745Z,100325.17
2018-04-15T21:48:43.087Z,100311.98
2018-04-15T21:51:09.367Z,100312.95
2018-04-15T21:53:35.682Z,100315.84
2018-04-15T21:56:01.968Z,100311.50
2018-04-15T21:58:28.281Z,100313.63
2018-04-15T22:00:54.710Z,100316.30
2018-04-15T22:03:20.989Z,100316.82
2018-04-15T22:05:47.330Z,100314.44
2018-04-15T22:08:13.606Z,100312.02
2018-04-15T22:10:39.903Z,100317.88
2018-04-15T22:13:07.146Z,100317.24
2018-04-15T22:15:33.430Z,100319.63
2018-04-15T22:17:59.737Z,100324.55
2018-04-15T22:20:26.029Z,100317.02
2018-04-15T22:22:52.308Z,100313.75
2018-04-15T22:25:18.590Z,100317.69
2018-04-15T22:27:44.934Z,100318.16
2018-04-15T22:30:11.235Z,100306.20
2018-04-15T22:32:37.502Z,100305.46
2018-04-15T22:35:03.853Z,100302.53
2018-04-15T22:37:30.182Z,100302.88
2018-04-15T22:39:56.459Z,100298.34
2018-04-15T22:42:22.736Z,100294.64
2018-04-15T22:44:49.022Z,100292.52
2018-04-15T22:47:15.313Z,100293.72
2018-04-15T22:49:42.420Z,100286.53
2018-04-15T22:52:08.718Z,100282.70
2018-04-15T22:54:34.999Z,100287.73
2018-04-15T22:57:07.409Z,100294.30
2018-04-15T22:59:33.690Z,100300.74
2018-04-15T23:01:59.986Z,100294.50
2018-04-15T23:04:26.354Z,100293.19
2018-04-15T23:06:52.726Z,100290.85
2018-04-15T23:09:19.061Z,100286.67
2018-04-15T23:11:45.486Z,100295.66
2018-04-15T23:14:11.843Z,100285.99
2018-04-15T23:16:38.243Z,100282.73
2018-04-15T23:19:04.579Z,100278.41
2018-04-15T23:21:30.918Z,100266.89
2018-04-15T23:23:57.251Z,100255.97
2018-04-15T23:26:23.599Z,100248.02
2018-04-15T23:28:49.971Z,100244.63
2018-04-15T23:31:16.309Z,100241.35
2018-04-15T23:33:42.654Z,100238.22
2018-04-15T23:36:09.062Z,100243.15
2018-04-15T23:38:35.410Z,100238.45
2018-04-15T23:41:01.894Z,100240.83
2018-04-15T23:43:28.223Z,100240.47
2018-04-15T23:45:54.590Z,100245.77
2018-04-15T23:48:20.939Z,100240.85
2018-04-15T23:50:47.298Z,100230.48
2018-04-15T23:53:13.654Z,100225.39
2018-04-15T23:55:40.015Z,100229.10
2018-04-15T23:58:06.365Z,100231.13
